createdAt,value
2022-10-01T00:00:42.506Z,77.83
2022-10-01T00:01:43.440Z,77.62
2022-10-01T00:02:44.712Z,77.83
2022-10-01T00:03:43.774Z,78.03
2022-10-01T00:04:42.947Z,78.34
2022-10-01T00:05:43.639Z,78.03
2022-10-01T00:06:43.319Z,78.54
2022-10-01T00:07:44.559Z,78.23
2022-10-01T00:08:43.703Z,78.54
2022-10-01T00:09:43.890Z,77.93
2022-10-01T00:10:44.071Z,78.34
2022-10-01T00:11:43.689Z,78.54
2022-10-01T00:12:42.350Z,78.13
2022-10-01T00:13:42.531Z,78.44
2022-10-01T00:14:42.728Z,78.44
2022-10-01T00:15:42.928Z,78.54
2022-10-01T00:16:43.236Z,78.85
2022-10-01T00:17:42.273Z,78.54
2022-10-01T00:18:42.285Z,78.44
2022-10-01T00:19:42.480Z,78.23
2022-10-01T00:20:42.680Z,78.13
2022-10-01T00:21:42.954Z,78.13
2022-10-01T00:22:43.154Z,78.34
2022-10-01T00:23:43.302Z,78.34
2022-10-01T00:24:42.426Z,78.03
2022-10-01T00:25:42.634Z,78.13
2022-10-01T00:26:43.852Z,77.83
2022-10-01T00:27:43.064Z,77.83
2022-10-01T00:28:43.237Z,77.93
2022-10-01T00:29:44.407Z,77.93
2022-10-01T00:30:43.161Z,78.23
2022-10-01T00:31:43.453Z,77.93
2022-10-01T00:32:44.614Z,78.03
2022-10-01T00:33:42.716Z,77.83
2022-10-01T00:34:44.113Z,78.03
2022-10-01T00:35:43.017Z,77.93
2022-10-01T00:36:42.262Z,77.89
2022-10-01T00:37:44.564Z,77.89
2022-10-01T00:38:43.723Z,78.00
2022-10-01T00:39:42.896Z,77.89
2022-10-01T00:40:43.386Z,77.79
2022-10-01T00:41:43.302Z,77.48
2022-10-01T00:42:44.439Z,77.48
2022-10-01T00:43:43.680Z,77.28
2022-10-01T00:44:43.897Z,77.59
2022-10-01T00:45:43.131Z,77.38
2022-10-01T00:46:42.279Z,77.89
2022-10-01T00:47:43.492Z,77.89
2022-10-01T00:48:43.686Z,77.48
2022-10-01T00:49:43.353Z,77.89
2022-10-01T00:50:43.075Z,77.38
2022-10-01T00:51:42.236Z,77.28
2022-10-01T00:52:42.486Z,77.38
2022-10-01T00:53:42.645Z,77.38
2022-10-01T00:54:42.840Z,77.69
2022-10-01T00:55:42.003Z,77.59
2022-10-01T00:56:43.254Z,77.79
2022-10-01T00:57:43.532Z,78.00
2022-10-01T00:58:42.593Z,78.41
2022-10-01T00:59:42.771Z,78.09
2022-10-01T01:00:43.990Z,77.59
2022-10-01T01:01:43.235Z,78.71
2022-10-01T01:02:42.366Z,78.20
2022-10-01T01:03:42.505Z,78.44
2022-10-01T01:04:42.676Z,78.75
2022-10-01T01:05:42.874Z,79.36
2022-10-01T01:06:43.098Z,79.16
2022-10-01T01:07:42.235Z,79.46
2022-10-01T01:08:49.693Z,79.16
2022-10-01T01:09:41.594Z,79.97
2022-10-01T01:10:43.878Z,80.48
2022-10-01T01:11:41.976Z,81.10
2022-10-01T01:12:42.198Z,80.89
2022-10-01T01:13:44.516Z,81.10
2022-10-01T01:14:41.537Z,80.99
2022-10-01T01:15:41.766Z,80.69
2022-10-01T01:16:41.929Z,81.51
2022-10-01T01:17:42.158Z,81.81
2022-10-01T01:18:42.334Z,82.22
2022-10-01T01:19:41.595Z,81.91
2022-10-01T01:20:41.695Z,80.99
2022-10-01T01:21:41.903Z,82.05
2022-10-01T01:22:42.121Z,81.85
2022-10-01T01:23:42.316Z,81.95
2022-10-01T01:24:41.477Z,81.81
2022-10-01T01:25:42.779Z,82.46
2022-10-01T01:26:41.899Z,82.77
2022-10-01T01:27:42.077Z,82.56
2022-10-01T01:28:42.277Z,82.97
2022-10-01T01:29:41.438Z,82.87
2022-10-01T01:30:41.734Z,83.48
2022-10-01T01:31:42.326Z,83.48
2022-10-01T01:32:42.037Z,83.59
2022-10-01T01:33:42.218Z,84.41
2022-10-01T01:34:42.390Z,84.20
2022-10-01T01:35:43.532Z,84.30
2022-10-01T01:36:42.809Z,85.42
2022-10-01T01:37:41.899Z,85.42
2022-10-01T01:38:43.268Z,84.09
2022-10-01T01:39:43.313Z,84.91
2022-10-01T01:40:43.512Z,85.22
2022-10-01T01:41:41.608Z,86.76
2022-10-01T01:42:42.164Z,85.97
2022-10-01T01:43:41.996Z,86.18
2022-10-01T01:44:41.153Z,86.29
2022-10-01T01:45:41.356Z,86.38
2022-10-01T01:46:41.511Z,86.90
2022-10-01T01:47:42.801Z,86.29
2022-10-01T01:48:41.092Z,87.41
2022-10-01T01:49:41.262Z,87.71
2022-10-01T01:50:41.055Z,87.61
2022-10-01T01:51:41.218Z,88.02
2022-10-01T01:52:41.406Z,88.12
2022-10-01T01:53:41.588Z,88.43
2022-10-01T01:54:41.030Z,88.64
2022-10-01T01:55:41.195Z,88.84
2022-10-01T01:56:43.429Z,89.15
2022-10-01T01:57:41.535Z,89.39
2022-10-01T01:58:43.848Z,89.80
2022-10-01T01:59:40.867Z,90.21
2022-10-01T02:00:43.142Z,90.31
2022-10-01T02:01:41.344Z,90.62
2022-10-01T02:02:41.562Z,90.52
2022-10-01T02:03:41.629Z,90.82
2022-10-01T02:04:40.800Z,90.62
2022-10-01T02:05:40.973Z,91.13
2022-10-01T02:06:41.153Z,91.23
2022-10-01T02:07:41.341Z,91.78
2022-10-01T02:08:41.528Z,91.58
2022-10-01T02:09:41.841Z,91.58
2022-10-01T02:10:40.870Z,91.69
2022-10-01T02:11:41.086Z,91.78
2022-10-01T02:12:42.223Z,92.10
2022-10-01T02:13:41.472Z,92.30
2022-10-01T02:14:40.620Z,92.50
2022-10-01T02:15:41.981Z,92.81
2022-10-01T02:16:41.052Z,92.91
2022-10-01T02:17:42.308Z,93.01
2022-10-01T02:18:41.483Z,92.71
2022-10-01T02:19:41.720Z,92.75
2022-10-01T02:20:40.668Z,92.91
2022-10-01T02:21:41.219Z,93.37
2022-10-01T02:22:41.051Z,93.57
2022-10-01T02:23:41.228Z,93.26
2022-10-01T02:24:41.375Z,93.06
2022-10-01T02:25:41.523Z,92.75
2022-10-01T02:26:40.631Z,93.16
2022-10-01T02:27:40.841Z,93.47
2022-10-01T02:28:40.993Z,93.16
2022-10-01T02:29:41.121Z,93.37
2022-10-01T02:30:41.278Z,93.37
2022-10-01T02:31:42.544Z,93.77
2022-10-01T02:32:42.710Z,94.39
2022-10-01T02:33:41.782Z,94.59
2022-10-01T02:34:40.883Z,94.49
2022-10-01T02:35:43.042Z,94.39
2022-10-01T02:36:42.236Z,94.49
2022-10-01T02:37:41.343Z,94.59
2022-10-01T02:38:40.465Z,94.59
2022-10-01T02:39:40.592Z,94.90
2022-10-01T02:40:40.753Z,95.05
2022-10-01T02:41:40.897Z,94.95
2022-10-01T02:42:45.133Z,94.43
2022-10-01T02:43:43.108Z,94.54
2022-10-01T02:44:42.422Z,94.64
2022-10-01T02:45:41.600Z,94.90
2022-10-01T02:46:40.704Z,95.00
2022-10-01T02:47:40.885Z,94.95
2022-10-01T02:48:42.222Z,94.90
2022-10-01T02:49:41.272Z,95.15
2022-10-01T02:50:40.393Z,95.25
2022-10-01T02:51:40.669Z,95.15
2022-10-01T02:52:40.810Z,95.25
2022-10-01T02:53:40.956Z,95.25
2022-10-01T02:54:41.193Z,95.46
2022-10-01T02:55:42.351Z,95.76
2022-10-01T02:56:48.662Z,95.97
2022-10-01T02:57:41.666Z,96.07
2022-10-01T02:58:40.846Z,95.87
2022-10-01T02:59:41.020Z,95.87
2022-10-01T03:00:40.245Z,96.07
2022-10-01T03:01:42.468Z,95.87
2022-10-01T03:02:42.678Z,95.56
2022-10-01T03:03:40.730Z,95.46
2022-10-01T03:04:41.937Z,95.97
2022-10-01T03:05:44.367Z,96.17
2022-10-01T03:06:41.272Z,96.38
2022-10-01T03:07:40.434Z,96.38
2022-10-01T03:08:40.616Z,96.17
2022-10-01T03:09:40.807Z,96.28
2022-10-01T03:10:44.714Z,96.28
2022-10-01T03:11:41.185Z,96.17
2022-10-01T03:12:42.317Z,96.28
2022-10-01T03:13:41.564Z,96.07
2022-10-01T03:14:40.716Z,95.76
2022-10-01T03:15:41.960Z,95.97
2022-10-01T03:16:41.064Z,96.17
2022-10-01T03:17:40.320Z,95.46
2022-10-01T03:18:42.517Z,96.23
2022-10-01T03:19:41.639Z,96.48
2022-10-01T03:20:39.737Z,96.58
2022-10-01T03:21:40.944Z,96.69
2022-10-01T03:22:41.337Z,96.99
2022-10-01T03:23:40.295Z,97.20
2022-10-01T03:24:40.497Z,97.30
2022-10-01T03:25:40.706Z,97.30
2022-10-01T03:26:39.855Z,97.30
2022-10-01T03:27:40.038Z,97.50
2022-10-01T03:28:40.358Z,97.50
2022-10-01T03:29:41.379Z,97.50
2022-10-01T03:30:41.657Z,97.20
2022-10-01T03:31:41.954Z,97.09
2022-10-01T03:32:42.038Z,96.99
2022-10-01T03:33:42.687Z,97.09
2022-10-01T03:34:42.417Z,97.09
2022-10-01T03:35:41.571Z,97.09
2022-10-01T03:36:40.739Z,97.20
2022-10-01T03:37:39.907Z,96.99
2022-10-01T03:38:40.133Z,97.09
2022-10-01T03:39:40.326Z,96.58
2022-10-01T03:40:40.498Z,97.05
2022-10-01T03:41:40.696Z,97.50
2022-10-01T03:42:41.945Z,97.61
2022-10-01T03:43:42.135Z,97.40
2022-10-01T03:44:40.251Z,97.20
2022-10-01T03:45:39.603Z,97.09
2022-10-01T03:46:39.607Z,97.20
2022-10-01T03:47:39.838Z,97.30
2022-10-01T03:48:40.037Z,97.09
2022-10-01T03:49:40.262Z,97.15
2022-10-01T03:50:41.526Z,97.30
2022-10-01T03:51:40.665Z,97.40
2022-10-01T03:52:42.866Z,97.40
2022-10-01T03:53:40.049Z,97.30
2022-10-01T03:54:40.255Z,97.09
2022-10-01T03:55:40.445Z,96.99
2022-10-01T03:56:39.610Z,97.05
2022-10-01T03:57:39.771Z,97.46
2022-10-01T03:58:40.988Z,97.77
2022-10-01T03:59:41.196Z,97.81
2022-10-01T04:00:41.377Z,97.81
2022-10-01T04:01:39.721Z,98.02
2022-10-01T04:02:39.810Z,98.22
2022-10-01T04:03:40.928Z,98.43
2022-10-01T04:04:40.101Z,98.53
2022-10-01T04:05:40.290Z,98.83
2022-10-01T04:06:39.445Z,98.83
2022-10-01T04:07:39.647Z,98.83
2022-10-01T04:08:39.897Z,98.74
2022-10-01T04:09:41.064Z,98.53
2022-10-01T04:10:41.264Z,98.74
2022-10-01T04:11:40.421Z,98.63
2022-10-01T04:12:40.620Z,98.74
2022-10-01T04:13:39.770Z,98.22
2022-10-01T04:14:41.042Z,97.87
2022-10-01T04:15:41.209Z,97.77
2022-10-01T04:16:40.615Z,97.77
2022-10-01T04:17:45.138Z,98.07
2022-10-01T04:18:40.740Z,97.87
2022-10-01T04:19:39.944Z,97.77
2022-10-01T04:20:40.168Z,97.66
2022-10-01T04:21:39.304Z,97.56
2022-10-01T04:22:39.539Z,97.36
2022-10-01T04:23:39.730Z,97.25
2022-10-01T04:24:40.500Z,97.36
2022-10-01T04:25:40.885Z,96.49
2022-10-01T04:26:40.873Z,96.29
2022-10-01T04:27:40.030Z,96.49
2022-10-01T04:28:39.180Z,96.29
2022-10-01T04:29:40.405Z,96.80
2022-10-01T04:30:39.591Z,96.91
2022-10-01T04:31:39.947Z,96.91
2022-10-01T04:32:41.040Z,97.00
2022-10-01T04:33:41.222Z,97.52
2022-10-01T04:34:40.363Z,97.82
2022-10-01T04:35:40.559Z,97.97
2022-10-01T04:36:40.551Z,97.62
2022-10-01T04:37:39.552Z,97.62
2022-10-01T04:38:39.746Z,97.82
2022-10-01T04:39:40.995Z,97.77
2022-10-01T04:40:41.221Z,97.52
2022-10-01T04:41:40.383Z,97.52
2022-10-01T04:42:40.647Z,97.52
2022-10-01T04:43:40.823Z,97.31
2022-10-01T04:44:38.965Z,97.31
2022-10-01T04:45:40.218Z,97.52
2022-10-01T04:46:40.474Z,97.52
2022-10-01T04:47:38.578Z,97.52
2022-10-01T04:48:38.929Z,97.31
2022-10-01T04:49:39.022Z,97.62
2022-10-01T04:50:39.236Z,97.41
2022-10-01T04:51:39.432Z,97.31
2022-10-01T04:52:40.715Z,97.41
2022-10-01T04:53:39.973Z,97.52
2022-10-01T04:54:40.085Z,97.62
2022-10-01T04:55:40.236Z,97.62
2022-10-01T04:56:40.543Z,97.62
2022-10-01T04:57:39.744Z,97.82
2022-10-01T04:58:41.084Z,97.82
2022-10-01T04:59:40.197Z,97.62
2022-10-01T05:00:39.421Z,97.92
2022-10-01T05:01:40.787Z,98.24
2022-10-01T05:02:40.884Z,98.03
2022-10-01T05:03:39.024Z,98.33
2022-10-01T05:04:40.711Z,98.54
2022-10-01T05:05:38.453Z,98.58
2022-10-01T05:06:40.772Z,98.69
2022-10-01T05:07:38.925Z,98.69
2022-10-01T05:08:39.195Z,98.69
2022-10-01T05:09:38.338Z,98.69
2022-10-01T05:10:46.164Z,98.69
2022-10-01T05:11:39.895Z,98.79
2022-10-01T05:12:39.071Z,98.38
2022-10-01T05:13:41.389Z,98.24
2022-10-01T05:14:39.545Z,98.03
2022-10-01T05:15:39.784Z,97.92
2022-10-01T05:16:39.360Z,97.62
2022-10-01T05:17:40.248Z,97.11
2022-10-01T05:18:38.399Z,96.91
2022-10-01T05:19:39.688Z,96.49
2022-10-01T05:20:39.897Z,96.49
2022-10-01T05:21:39.098Z,96.08
2022-10-01T05:22:38.365Z,95.94
2022-10-01T05:23:39.558Z,96.04
2022-10-01T05:24:38.759Z,96.04
2022-10-01T05:25:40.013Z,96.04
2022-10-01T05:26:38.181Z,96.39
2022-10-01T05:27:38.424Z,96.14
2022-10-01T05:28:39.759Z,96.45
2022-10-01T05:29:38.869Z,95.84
2022-10-01T05:30:39.078Z,96.04
2022-10-01T05:31:39.691Z,96.14
2022-10-01T05:32:39.524Z,96.14
2022-10-01T05:33:39.720Z,96.34
2022-10-01T05:34:39.915Z,96.34
2022-10-01T05:35:39.076Z,96.70
2022-10-01T05:36:38.249Z,97.11
2022-10-01T05:37:39.515Z,97.11
2022-10-01T05:38:38.737Z,97.11
2022-10-01T05:39:38.889Z,97.11
2022-10-01T05:40:39.078Z,97.00
2022-10-01T05:41:38.244Z,97.11
2022-10-01T05:42:38.445Z,96.91
2022-10-01T05:43:38.649Z,96.70
2022-10-01T05:44:37.909Z,96.70
2022-10-01T05:45:39.116Z,96.59
2022-10-01T05:46:38.236Z,96.59
2022-10-01T05:47:38.467Z,96.91
2022-10-01T05:48:39.722Z,96.49
2022-10-01T05:49:39.151Z,96.29
2022-10-01T05:50:38.111Z,96.49
2022-10-01T05:51:39.338Z,96.49
2022-10-01T05:52:38.520Z,96.25
2022-10-01T05:53:38.753Z,96.29
2022-10-01T05:54:38.967Z,96.55
2022-10-01T05:55:39.220Z,95.84
2022-10-01T05:56:39.430Z,95.94
2022-10-01T05:57:38.603Z,96.25
2022-10-01T05:58:37.761Z,96.14
2022-10-01T05:59:41.090Z,95.94
2022-10-01T06:00:38.198Z,96.04
2022-10-01T06:01:39.125Z,96.04
2022-10-01T06:02:37.716Z,96.34
2022-10-01T06:03:39.904Z,96.45
2022-10-01T06:04:41.226Z,96.14
2022-10-01T06:05:39.331Z,96.25
2022-10-01T06:06:38.495Z,96.34
2022-10-01T06:07:39.779Z,96.45
2022-10-01T06:08:38.923Z,95.94
2022-10-01T06:09:38.117Z,95.94
2022-10-01T06:10:39.400Z,95.94
2022-10-01T06:11:38.536Z,96.14
2022-10-01T06:12:45.024Z,95.94
2022-10-01T06:13:37.902Z,95.84
2022-10-01T06:14:44.341Z,95.94
2022-10-01T06:15:38.459Z,96.04
2022-10-01T06:16:39.674Z,95.63
2022-10-01T06:17:38.686Z,95.53
2022-10-01T06:18:38.929Z,95.63
2022-10-01T06:19:38.070Z,95.53
2022-10-01T06:20:38.251Z,95.22
2022-10-01T06:21:37.843Z,95.53
2022-10-01T06:22:38.701Z,95.22
2022-10-01T06:23:39.939Z,95.22
2022-10-01T06:24:38.050Z,94.67
2022-10-01T06:25:39.297Z,94.77
2022-10-01T06:26:39.474Z,94.46
2022-10-01T06:27:37.594Z,94.15
2022-10-01T06:28:37.803Z,94.06
2022-10-01T06:29:39.118Z,94.26
2022-10-01T06:30:39.219Z,94.26
2022-10-01T06:31:38.914Z,94.36
2022-10-01T06:32:38.549Z,94.36
2022-10-01T06:33:38.793Z,94.06
2022-10-01T06:34:37.874Z,93.95
2022-10-01T06:35:38.110Z,94.06
2022-10-01T06:36:38.261Z,93.80
2022-10-01T06:37:37.420Z,93.70
2022-10-01T06:38:39.693Z,93.70
2022-10-01T06:39:38.855Z,93.80
2022-10-01T06:40:39.539Z,94.01
2022-10-01T06:41:39.238Z,93.80
2022-10-01T06:42:39.418Z,93.80
2022-10-01T06:43:40.556Z,93.70
2022-10-01T06:44:38.760Z,93.29
2022-10-01T06:45:37.997Z,93.70
2022-10-01T06:46:37.113Z,93.19
2022-10-01T06:47:38.301Z,93.19
2022-10-01T06:48:38.479Z,93.29
2022-10-01T06:49:38.681Z,93.29
2022-10-01T06:50:37.845Z,93.40
2022-10-01T06:51:38.200Z,92.99
2022-10-01T06:52:38.271Z,92.88
2022-10-01T06:53:39.517Z,93.19
2022-10-01T06:54:39.730Z,93.40
2022-10-01T06:55:38.079Z,93.50
2022-10-01T06:56:39.174Z,93.70
2022-10-01T06:57:39.280Z,93.80
2022-10-01T06:58:39.477Z,93.80
2022-10-01T06:59:37.591Z,93.70
2022-10-01T07:00:37.823Z,94.21
2022-10-01T07:01:38.615Z,94.32
2022-10-01T07:02:39.308Z,94.21
2022-10-01T07:03:37.343Z,94.62
2022-10-01T07:04:38.553Z,94.52
2022-10-01T07:05:40.758Z,94.93
2022-10-01T07:06:36.900Z,95.23
2022-10-01T07:07:38.127Z,95.75
2022-10-01T07:08:39.381Z,95.85
2022-10-01T07:09:37.442Z,96.15
2022-10-01T07:10:37.635Z,96.67
2022-10-01T07:11:37.903Z,96.71
2022-10-01T07:12:37.083Z,96.92
2022-10-01T07:13:39.282Z,97.42
2022-10-01T07:14:37.821Z,97.74
2022-10-01T07:15:37.600Z,98.04
2022-10-01T07:16:36.832Z,98.35
2022-10-01T07:17:37.021Z,98.65
2022-10-01T07:18:37.203Z,98.45
2022-10-01T07:19:37.412Z,98.45
2022-10-01T07:20:37.669Z,98.24
2022-10-01T07:21:37.137Z,98.04
2022-10-01T07:22:38.067Z,98.04
2022-10-01T07:23:37.265Z,98.14
2022-10-01T07:24:37.483Z,97.83
2022-10-01T07:25:37.702Z,97.83
2022-10-01T07:26:36.894Z,97.42
2022-10-01T07:27:37.071Z,97.38
2022-10-01T07:28:37.323Z,97.28
2022-10-01T07:29:37.538Z,97.17
2022-10-01T07:30:37.756Z,97.17
2022-10-01T07:31:37.478Z,97.17
2022-10-01T07:32:37.157Z,96.77
2022-10-01T07:33:37.396Z,96.77
2022-10-01T07:34:36.555Z,96.97
2022-10-01T07:35:37.792Z,96.77
2022-10-01T07:36:38.012Z,96.67
2022-10-01T07:37:38.183Z,96.46
2022-10-01T07:38:37.345Z,96.15
2022-10-01T07:39:37.550Z,96.31
2022-10-01T07:40:38.692Z,95.80
2022-10-01T07:41:37.905Z,95.70
2022-10-01T07:42:38.178Z,96.01
2022-10-01T07:43:40.266Z,95.80
2022-10-01T07:44:38.538Z,95.90
2022-10-01T07:45:52.186Z,95.60
2022-10-01T07:46:37.814Z,95.70
2022-10-01T07:47:36.974Z,95.25
2022-10-01T07:48:37.529Z,95.04
2022-10-01T07:49:37.320Z,94.94
2022-10-01T07:50:36.489Z,95.25
2022-10-01T07:51:36.913Z,95.35
2022-10-01T07:52:36.872Z,95.25
2022-10-01T07:53:37.018Z,94.53
2022-10-01T07:54:38.516Z,94.64
2022-10-01T07:55:43.611Z,94.74
2022-10-01T07:56:37.563Z,94.53
2022-10-01T07:57:37.746Z,94.64
2022-10-01T07:58:36.841Z,94.84
2022-10-01T07:59:37.103Z,95.04
2022-10-01T08:00:38.346Z,94.94
2022-10-01T08:01:37.990Z,94.64
2022-10-01T08:02:37.568Z,94.38
2022-10-01T08:03:36.677Z,94.59
2022-10-01T08:04:36.872Z,94.29
2022-10-01T08:05:38.076Z,93.77
2022-10-01T08:06:38.345Z,93.77
2022-10-01T08:07:37.383Z,93.37
2022-10-01T08:08:36.529Z,93.67
2022-10-01T08:09:36.716Z,93.98
2022-10-01T08:10:37.911Z,93.67
2022-10-01T08:11:38.080Z,93.77
2022-10-01T08:12:37.229Z,93.37
2022-10-01T08:13:43.616Z,93.57
2022-10-01T08:14:36.549Z,93.88
2022-10-01T08:15:36.716Z,94.18
2022-10-01T08:16:37.023Z,94.18
2022-10-01T08:17:38.666Z,93.98
2022-10-01T08:18:37.464Z,93.57
2022-10-01T08:19:36.346Z,93.22
2022-10-01T08:20:37.857Z,93.32
2022-10-01T08:21:42.098Z,92.91
2022-10-01T08:22:41.054Z,93.02
2022-10-01T08:23:38.152Z,92.91
2022-10-01T08:24:37.295Z,93.32
2022-10-01T08:25:36.450Z,93.52
2022-10-01T08:26:35.639Z,93.32
2022-10-01T08:28:03.866Z,93.02
2022-10-01T08:28:37.026Z,92.61
2022-10-01T08:29:36.201Z,92.71
2022-10-01T08:31:27.271Z,92.41
2022-10-01T08:31:35.855Z,92.36
2022-10-01T08:32:35.728Z,92.05
2022-10-01T08:33:35.913Z,91.85
2022-10-01T08:34:37.175Z,92.26
2022-10-01T08:35:37.351Z,92.05
2022-10-01T08:36:37.570Z,92.16
2022-10-01T08:37:36.747Z,92.87
2022-10-01T08:38:35.817Z,92.16
2022-10-01T08:39:42.366Z,92.16
2022-10-01T08:40:36.200Z,93.24
2022-10-01T08:41:36.697Z,93.33
2022-10-01T08:42:35.537Z,93.24
2022-10-01T08:43:35.734Z,92.93
2022-10-01T08:44:35.902Z,92.63
2022-10-01T08:45:36.194Z,93.54
2022-10-01T08:46:36.250Z,93.24
2022-10-01T08:47:35.442Z,92.77
2022-10-01T08:48:36.593Z,92.57
2022-10-01T08:49:36.794Z,92.67
2022-10-01T08:50:38.040Z,92.72
2022-10-01T08:51:38.329Z,92.22
2022-10-01T08:52:36.293Z,92.32
2022-10-01T08:53:35.394Z,92.11
2022-10-01T08:54:39.641Z,92.11
2022-10-01T08:55:36.818Z,92.01
2022-10-01T08:56:36.167Z,92.22
2022-10-01T08:57:42.343Z,92.22
2022-10-01T08:58:37.317Z,92.32
2022-10-01T08:59:36.486Z,92.42
2022-10-01T09:00:35.600Z,92.22
2022-10-01T09:01:36.103Z,92.01
2022-10-01T09:02:37.035Z,92.32
2022-10-01T09:03:36.173Z,92.83
2022-10-01T09:04:35.522Z,93.03
2022-10-01T09:05:35.493Z,92.83
2022-10-01T09:06:35.672Z,92.72
2022-10-01T09:07:35.861Z,92.79
2022-10-01T09:08:35.251Z,92.18
2022-10-01T09:09:35.365Z,92.89
2022-10-01T09:10:36.571Z,92.58
2022-10-01T09:11:37.121Z,91.97
2022-10-01T09:12:36.901Z,91.97
2022-10-01T09:13:37.082Z,91.93
2022-10-01T09:14:36.204Z,91.46
2022-10-01T09:15:36.373Z,91.83
2022-10-01T09:16:36.576Z,91.93
2022-10-01T09:17:36.671Z,91.72
2022-10-01T09:18:35.809Z,91.93
2022-10-01T09:19:34.954Z,91.93
2022-10-01T09:20:37.158Z,91.83
2022-10-01T09:21:36.641Z,91.93
2022-10-01T09:22:35.420Z,92.44
2022-10-01T09:23:35.586Z,91.93
2022-10-01T09:24:36.837Z,92.13
2022-10-01T09:25:36.944Z,91.72
2022-10-01T09:26:36.071Z,91.83
2022-10-01T09:27:35.234Z,92.33
2022-10-01T09:28:35.407Z,92.18
2022-10-01T09:29:35.538Z,92.27
2022-10-01T09:30:35.760Z,92.79
2022-10-01T09:31:36.321Z,93.19
2022-10-01T09:32:42.280Z,93.40
2022-10-01T09:33:35.158Z,93.80
2022-10-01T09:34:36.401Z,94.11
2022-10-01T09:35:35.460Z,93.90
2022-10-01T09:36:35.679Z,94.11
2022-10-01T09:37:42.024Z,94.21
2022-10-01T09:38:34.913Z,94.72
2022-10-01T09:39:35.120Z,95.33
2022-10-01T09:40:35.283Z,95.33
2022-10-01T09:41:35.732Z,95.94
2022-10-01T09:42:35.672Z,95.84
2022-10-01T09:43:34.788Z,95.84
2022-10-01T09:45:03.024Z,96.04
2022-10-01T09:45:35.192Z,95.94
2022-10-01T09:46:35.342Z,96.25
2022-10-01T09:47:35.633Z,96.71
2022-10-01T09:48:34.726Z,96.51
2022-10-01T09:49:34.871Z,96.71
2022-10-01T09:50:35.078Z,96.92
2022-10-01T09:51:40.032Z,96.71
2022-10-01T09:52:36.444Z,96.81
2022-10-01T09:53:38.776Z,96.41
2022-10-01T09:54:35.812Z,96.87
2022-10-01T09:55:35.973Z,96.20
2022-10-01T09:56:36.058Z,96.97
2022-10-01T09:57:35.306Z,96.87
2022-10-01T09:58:35.486Z,97.38
2022-10-01T09:59:34.702Z,97.38
2022-10-01T10:00:35.852Z,97.38
2022-10-01T10:01:37.781Z,97.17
2022-10-01T10:02:35.382Z,97.58
2022-10-01T10:03:49.881Z,97.69
2022-10-01T10:04:36.591Z,97.78
2022-10-01T10:05:35.820Z,97.48
2022-10-01T10:06:49.647Z,96.77
2022-10-01T10:07:34.971Z,96.26
2022-10-01T10:08:35.116Z,96.36
2022-10-01T10:09:35.283Z,96.26
2022-10-01T10:10:37.471Z,96.72
2022-10-01T10:11:34.980Z,96.42
2022-10-01T10:12:36.780Z,95.61
2022-10-01T10:13:37.038Z,95.20
2022-10-01T10:14:35.048Z,95.09
2022-10-01T10:15:35.642Z,95.81
2022-10-01T10:16:34.700Z,95.36
2022-10-01T10:17:35.577Z,95.05
2022-10-01T10:18:34.748Z,94.54
2022-10-01T10:19:34.894Z,95.36
2022-10-01T10:20:37.128Z,94.64
2022-10-01T10:21:34.163Z,93.68
2022-10-01T10:22:36.454Z,95.10
2022-10-01T10:23:34.497Z,95.10
2022-10-01T10:24:36.778Z,94.66
2022-10-01T10:25:34.843Z,95.37
2022-10-01T10:26:35.303Z,94.71
2022-10-01T10:27:35.253Z,92.63
2022-10-01T10:28:37.643Z,94.92
2022-10-01T10:29:34.465Z,92.68
2022-10-01T10:30:34.670Z,92.38
2022-10-01T10:31:35.966Z,91.52
2022-10-01T10:32:36.023Z,92.33
2022-10-01T10:33:34.111Z,92.54
2022-10-01T10:34:35.344Z,94.32
2022-10-01T10:35:35.534Z,91.99
2022-10-01T10:36:35.992Z,92.96
2022-10-01T10:37:35.772Z,90.42
2022-10-01T10:38:34.922Z,90.62
2022-10-01T10:39:34.007Z,90.53
2022-10-01T10:40:35.216Z,90.16
2022-10-01T10:41:35.634Z,90.67
2022-10-01T10:42:34.490Z,92.35
2022-10-01T10:43:34.624Z,89.92
2022-10-01T10:44:34.835Z,89.21
2022-10-01T10:45:34.944Z,88.90
2022-10-01T10:46:36.307Z,89.98
2022-10-01T10:47:35.277Z,90.08
2022-10-01T10:48:34.460Z,89.26
2022-10-01T10:49:34.616Z,89.87
2022-10-01T10:50:35.085Z,87.34
2022-10-01T10:51:35.180Z,87.48
2022-10-01T10:52:33.827Z,88.49
2022-10-01T10:53:34.984Z,88.60
2022-10-01T10:54:35.089Z,90.38
2022-10-01T10:55:34.184Z,89.87
2022-10-01T10:56:34.561Z,88.66
2022-10-01T10:57:40.724Z,89.11
2022-10-01T10:58:34.607Z,87.99
2022-10-01T10:59:33.708Z,89.21
2022-10-01T11:00:35.900Z,89.01
2022-10-01T11:01:35.386Z,88.49
2022-10-01T11:02:34.129Z,89.11
2022-10-01T11:03:34.299Z,89.21
2022-10-01T11:04:34.361Z,88.90
2022-10-01T11:05:34.510Z,88.80
2022-10-01T11:06:34.869Z,88.80
2022-10-01T11:07:33.799Z,89.51
2022-10-01T11:08:33.930Z,89.72
2022-10-01T11:09:34.113Z,90.88
2022-10-01T11:10:34.265Z,90.57
2022-10-01T11:11:34.434Z,90.57
2022-10-01T11:12:34.655Z,90.47
2022-10-01T11:13:59.705Z,91.13
2022-10-01T11:14:33.904Z,91.85
2022-10-01T11:15:41.373Z,92.55
2022-10-01T11:16:34.460Z,91.85
2022-10-01T11:17:35.420Z,91.94
2022-10-01T11:18:34.487Z,91.74
2022-10-01T11:19:33.679Z,91.85
2022-10-01T11:20:35.828Z,91.24
2022-10-01T11:21:35.027Z,89.41
2022-10-01T11:22:34.035Z,90.89
2022-10-01T11:23:35.281Z,91.25
2022-10-01T11:24:33.293Z,90.03
2022-10-01T11:25:34.534Z,90.30
2022-10-01T11:26:33.743Z,87.66
2022-10-01T11:27:34.729Z,86.91
2022-10-01T11:28:33.827Z,85.66
2022-10-01T11:29:34.007Z,85.05
2022-10-01T11:30:34.133Z,86.27
2022-10-01T11:31:33.278Z,81.82
2022-10-01T11:32:33.399Z,81.01
2022-10-01T11:33:33.543Z,82.39
2022-10-01T11:34:34.928Z,81.17
2022-10-01T11:35:33.792Z,81.64
2022-10-01T11:36:34.180Z,81.03
2022-10-01T11:37:34.030Z,79.41
2022-10-01T11:38:33.122Z,78.10
2022-10-01T11:39:33.266Z,76.89
2022-10-01T11:40:34.431Z,77.29
2022-10-01T11:41:35.562Z,77.90
2022-10-01T11:42:34.688Z,76.35
2022-10-01T11:43:34.773Z,76.55
2022-10-01T11:44:34.907Z,75.54
2022-10-01T11:45:33.010Z,75.95
2022-10-01T11:46:34.561Z,74.63
2022-10-01T11:47:33.214Z,76.21
2022-10-01T11:48:33.348Z,75.60
2022-10-01T11:49:33.484Z,74.66
2022-10-01T11:50:38.512Z,74.87
2022-10-01T11:51:34.939Z,75.07
2022-10-01T11:52:33.898Z,74.76
2022-10-01T11:53:33.981Z,74.36
2022-10-01T11:54:33.049Z,74.66
2022-10-01T11:55:35.240Z,74.16
2022-10-01T11:56:35.814Z,74.36
2022-10-01T11:57:33.410Z,74.93
2022-10-01T11:58:33.557Z,75.54
2022-10-01T11:59:33.704Z,75.43
2022-10-01T12:00:33.823Z,77.35
2022-10-01T12:01:33.996Z,74.22
2022-10-01T12:02:40.526Z,76.24
2022-10-01T12:03:33.162Z,73.35
2022-10-01T12:04:35.352Z,74.63
2022-10-01T12:05:33.453Z,72.11
2022-10-01T12:06:34.190Z,72.81
2022-10-01T12:07:33.614Z,72.51
2022-10-01T12:08:32.795Z,71.91
2022-10-01T12:09:32.820Z,72.51
2022-10-01T12:10:35.037Z,71.84
2022-10-01T12:11:33.085Z,70.93
2022-10-01T12:12:34.227Z,71.64
2022-10-01T12:13:33.358Z,71.84
2022-10-01T12:14:39.701Z,72.04
2022-10-01T12:15:33.565Z,73.35
2022-10-01T12:16:34.152Z,72.78
2022-10-01T12:17:33.861Z,73.08
2022-10-01T12:18:32.954Z,73.18
2022-10-01T12:19:33.142Z,73.79
2022-10-01T12:20:34.230Z,73.79
2022-10-01T12:21:34.326Z,73.11
2022-10-01T12:22:33.438Z,74.90
2022-10-01T12:23:32.525Z,73.89
2022-10-01T12:24:32.645Z,73.38
2022-10-01T12:25:32.826Z,74.19
2022-10-01T12:26:33.237Z,75.37
2022-10-01T12:27:32.996Z,75.27
2022-10-01T12:28:33.202Z,73.52
2022-10-01T12:29:33.253Z,73.22
2022-10-01T12:30:33.415Z,72.91
2022-10-01T12:31:32.510Z,72.31
2022-10-01T12:32:32.582Z,72.27
2022-10-01T12:33:32.699Z,70.62
2022-10-01T12:34:32.825Z,69.21
2022-10-01T12:35:34.057Z,71.13
2022-10-01T12:36:34.398Z,70.39
2022-10-01T12:37:33.242Z,69.99
2022-10-01T12:38:32.326Z,71.16
2022-10-01T12:39:33.505Z,69.29
2022-10-01T12:40:32.593Z,68.28
2022-10-01T12:41:32.745Z,69.29
2022-10-01T12:42:32.833Z,68.88
2022-10-01T12:43:32.945Z,68.28
2022-10-01T12:45:12.504Z,67.47
2022-10-01T12:45:32.171Z,67.77
2022-10-01T12:46:32.532Z,69.15
2022-10-01T12:47:33.525Z,67.54
2022-10-01T12:48:32.548Z,68.04
2022-10-01T12:49:32.799Z,68.88
2022-10-01T12:50:32.798Z,70.02
2022-10-01T12:51:32.927Z,70.02
2022-10-01T12:52:33.048Z,69.01